Time;durP1;ratioP1;P1;durP2;ratioP2;P2;SDS_P1;SDS_P2;PMS_P1;PMS_P2;Temp;Humidity;BMP_temperature;BMP_pressure;BME280_temperature;BME280_humidity;BME280_pressure;Samples;Min_cycle;Max_cycle;Signal;HPM_P1;HPM_P2
2021/11/28 00:00:42;;;;;;;15.58;13.00;;;;;;;4.47;100.00;97762.41;1766834;79;21097;-59
2021/11/28 00:03:10;;;;;;;15.78;11.95;;;;;;;4.44;100.00;97758.50;1773091;79;21312;-62
2021/11/28 00:05:37;;;;;;;15.53;11.78;;;;;;;4.45;100.00;97765.89;1763207;79;20941;-61
2021/11/28 00:10:54;;;;;;;13.70;12.23;;;;;;;4.50;100.00;97780.67;1774722;80;20900;-62
2021/11/28 00:16:09;;;;;;;16.00;12.35;;;;;;;4.48;100.00;97795.47;1724873;82;21018;-61
2021/11/28 00:18:47;;;;;;;15.98;12.20;;;;;;;4.49;100.00;97795.91;1733150;81;20948;-60
2021/11/28 00:21:15;;;;;;;14.83;12.03;;;;;;;4.48;100.00;97794.60;1754486;80;20892;-61
2021/11/28 00:23:51;;;;;;;16.57;12.23;;;;;;;4.47;100.00;97805.92;1777325;79;21411;-59
2021/11/28 00:26:19;;;;;;;18.62;14.00;;;;;;;4.47;100.00;97797.66;1776844;79;21434;-61
2021/11/28 00:28:54;;;;;;;20.12;15.05;;;;;;;4.47;100.00;97798.95;1776489;80;20869;-60
2021/11/28 00:31:21;;;;;;;33.42;16.75;;;;;;;4.46;100.00;97798.96;1776923;80;21456;-60
2021/11/28 00:33:49;;;;;;;28.85;16.73;;;;;;;4.43;100.00;97795.92;1776527;79;21459;-61
2021/11/28 00:36:19;;;;;;;26.10;15.78;;;;;;;4.40;100.00;97791.58;1776626;79;21381;-62
2021/11/28 00:38:50;;;;;;;18.90;14.43;;;;;;;4.37;100.00;97789.42;1750950;80;21443;-60
2021/11/28 00:41:20;;;;;;;17.05;12.75;;;;;;;4.31;100.00;97793.36;1783999;79;20931;-61
2021/11/28 00:43:56;;;;;;;14.13;11.48;;;;;;;4.25;100.00;97799.44;1785256;80;20892;-61
2021/11/28 00:46:23;;;;;;;13.22;10.88;;;;;;;4.19;100.00;97799.45;1784374;78;20884;-61
2021/11/28 00:48:54;;;;;;;13.43;10.65;;;;;;;4.15;100.00;97797.72;1780297;79;20840;-60
2021/11/28 00:52:03;;;;;;;16.30;13.50;;;;;;;4.13;100.00;97792.07;1778213;79;21503;-61
2021/11/28 00:54:07;;;;;;;17.17;13.45;;;;;;;4.11;100.00;97780.33;1762049;80;21411;-61
2021/11/28 00:56:37;;;;;;;19.92;14.68;;;;;;;4.10;100.00;97778.59;1744359;80;20884;-61
2021/11/28 00:59:07;;;;;;;19.37;14.03;;;;;;;4.10;100.00;97789.03;1776836;79;20924;-60
2021/11/28 01:01:37;;;;;;;16.80;13.53;;;;;;;4.10;100.00;97786.42;1777427;80;20908;-63
2021/11/28 01:04:08;;;;;;;17.82;13.50;;;;;;;4.08;100.00;97777.73;1775372;79;21242;-61
2021/11/28 01:06:38;;;;;;;18.42;15.05;;;;;;;4.06;100.00;97784.70;1776593;79;20911;-60
2021/11/28 01:09:08;;;;;;;19.60;14.65;;;;;;;4.07;100.00;97790.34;1776829;79;20864;-61
2021/11/28 01:11:40;;;;;;;19.62;14.95;;;;;;;4.05;100.00;97791.66;1776761;80;20927;-61
2021/11/28 01:14:10;;;;;;;23.10;15.70;;;;;;;4.03;100.00;97797.75;1774309;79;21423;-61
2021/11/28 01:16:38;;;;;;;22.98;16.27;;;;;;;4.03;100.00;97794.70;1776976;78;21082;-61
2021/11/28 01:19:09;;;;;;;24.25;17.30;;;;;;;4.02;100.00;97785.58;1787290;78;21422;-59
2021/11/28 01:22:07;;;;;;;24.07;16.87;;;;;;;4.01;100.00;97794.27;1796504;80;21296;-59
2021/11/28 01:24:45;;;;;;;25.50;16.37;;;;;;;4.00;100.00;97800.36;1796881;78;21474;-61
2021/11/28 01:27:16;;;;;;;21.12;14.73;;;;;;;3.99;100.00;97805.15;1796400;78;20911;-61
2021/11/28 01:29:45;;;;;;;20.88;14.83;;;;;;;3.96;100.00;97802.11;1796759;79;21893;-61
2021/11/28 01:32:15;;;;;;;25.17;16.82;;;;;;;3.96;100.00;97793.41;1796334;79;21399;-61
2021/11/28 01:34:43;;;;;;;30.05;18.55;;;;;;;3.97;100.00;97797.77;1796671;79;20936;-62
2021/11/28 01:37:28;;;;;;;22.93;14.87;;;;;;;3.93;100.00;97779.07;1796605;80;21399;-60
2021/11/28 01:39:53;;;;;;;27.20;13.98;;;;;;;3.88;100.00;97776.91;1793560;78;20911;-61
2021/11/28 01:42:59;;;;;;;19.65;13.15;;;;;;;3.83;100.00;97773.00;1791854;79;21363;-59
2021/11/28 01:45:21;;;;;;;19.10;13.15;;;;;;;3.77;100.00;97776.45;1788032;79;20903;-61
2021/11/28 01:47:50;;;;;;;13.48;10.55;;;;;;;3.73;100.00;97773.42;1796419;78;21479;-60
2021/11/28 01:50:28;;;;;;;11.18;9.68;;;;;;;3.69;100.00;97770.38;1792792;78;20880;-60
2021/11/28 01:53:01;;;;;;;14.18;10.65;;;;;;;3.66;100.00;97772.99;1790474;78;21454;-61
2021/11/28 01:55:31;;;;;;;13.10;10.25;;;;;;;3.60;100.00;97773.44;1796977;79;21140;-61
2021/11/28 01:58:00;;;;;;;13.22;10.13;;;;;;;3.53;100.00;97775.61;1798925;78;21514;-60
2021/11/28 02:00:35;;;;;;;14.10;11.10;;;;;;;3.44;100.00;97773.44;1796285;78;21469;-60
2021/11/28 02:03:04;;;;;;;13.83;10.95;;;;;;;3.37;100.00;97775.61;1765104;79;21363;-60
2021/11/28 02:05:32;;;;;;;14.55;11.00;;;;;;;3.30;100.00;97769.94;1746222;80;21430;-61
2021/11/28 02:08:01;;;;;;;13.60;10.53;;;;;;;3.26;100.00;97766.02;1722569;82;21926;-59
2021/11/28 02:10:32;;;;;;;15.65;10.93;;;;;;;3.23;100.00;97761.67;1758532;80;21438;-60
2021/11/28 02:13:04;;;;;;;14.43;10.80;;;;;;;3.23;100.00;97763.41;1758541;80;21457;-60
2021/11/28 02:15:33;;;;;;;14.78;11.33;;;;;;;3.23;100.00;97762.11;1728960;81;21018;-60
2021/11/28 02:18:02;;;;;;;14.38;11.40;;;;;;;3.21;100.00;97760.80;1758710;80;21395;-59
2021/11/28 02:20:34;;;;;;;16.60;11.78;;;;;;;3.20;100.00;97757.77;1738380;81;21104;-61
2021/11/28 02:23:06;;;;;;;16.48;12.15;;;;;;;3.20;100.00;97749.95;1701652;82;23336;-60
2021/11/28 02:25:36;;;;;;;18.55;13.00;;;;;;;3.21;100.00;97752.13;1724409;81;21494;-59
2021/11/28 02:28:16;;;;;;;17.82;12.80;;;;;;;3.21;100.00;97753.42;1710524;81;20932;-59
2021/11/28 02:30:42;;;;;;;19.90;13.75;;;;;;;3.20;100.00;97757.77;1716981;83;21545;-60
2021/11/28 02:33:14;;;;;;;11.43;9.10;;;;;;;3.17;100.00;97751.25;1710658;81;21399;-61
2021/11/28 02:35:46;;;;;;;14.07;11.12;;;;;;;3.12;100.00;97749.95;1719130;82;21558;-61
2021/11/28 02:38:20;;;;;;;18.37;11.80;;;;;;;3.08;100.00;97755.16;1724303;81;20967;-61
2021/11/28 02:40:52;;;;;;;17.82;12.03;;;;;;;3.05;100.00;97749.50;1738968;80;20934;-60
2021/11/28 02:43:27;;;;;;;16.77;12.60;;;;;;;3.02;100.00;97762.53;1722185;81;20908;-65
2021/11/28 02:45:59;;;;;;;18.05;13.28;;;;;;;3.01;100.00;97769.04;1729649;81;21392;-60
2021/11/28 02:48:33;;;;;;;19.07;14.00;;;;;;;3.04;100.00;97770.34;1732029;81;20947;-60
2021/11/28 02:51:02;;;;;;;20.35;14.50;;;;;;;3.06;100.00;97766.88;1716476;82;21004;-60
2021/11/28 02:53:31;;;;;;;20.92;15.43;;;;;;;3.08;100.00;97772.09;1690988;83;20928;-61
2021/11/28 02:56:03;;;;;;;20.68;14.03;;;;;;;3.09;100.00;97759.06;1715079;83;20939;-60
2021/11/28 02:58:41;;;;;;;18.05;13.20;;;;;;;3.12;100.00;97756.89;1735513;80;21878;-60
2021/11/28 03:01:25;;;;;;;20.50;13.78;;;;;;;3.13;100.00;97759.50;1717076;81;21046;-60
2021/11/28 03:04:14;;;;;;;23.52;14.40;;;;;;;3.19;100.00;97757.77;1737598;80;21502;-60
2021/11/28 03:06:45;;;;;;;20.12;14.70;;;;;;;3.20;100.00;97734.75;1713614;82;21551;-60
2021/11/28 03:09:12;;;;;;;22.35;15.70;;;;;;;3.18;100.00;97733.88;1731322;81;20994;-60
2021/11/28 03:11:46;;;;;;;24.10;16.77;;;;;;;3.15;100.00;97739.95;1740075;81;21454;-60
2021/11/28 03:14:12;;;;;;;22.58;16.27;;;;;;;3.14;100.00;97752.12;1734923;81;21424;-59
2021/11/28 03:16:46;;;;;;;22.05;15.78;;;;;;;3.15;100.00;97757.77;1732815;81;21399;-59
2021/11/28 03:19:14;;;;;;;20.65;14.75;;;;;;;3.18;100.00;97752.13;1703573;82;20970;-60
2021/11/28 03:21:49;;;;;;;22.20;14.20;;;;;;;3.19;100.00;97752.13;1733981;82;21845;-59
2021/11/28 03:24:20;;;;;;;24.20;15.63;;;;;;;3.20;100.00;97757.77;1727288;82;21233;-59
2021/11/28 03:26:54;;;;;;;23.47;15.93;;;;;;;3.22;100.00;97752.56;1727433;82;20917;-60
2021/11/28 03:29:26;;;;;;;19.77;13.80;;;;;;;3.23;100.00;97736.92;1740479;82;21485;-62
2021/11/28 03:32:09;;;;;;;19.40;13.83;;;;;;;3.27;100.00;97744.30;1736655;81;20996;-60
2021/11/28 03:34:38;;;;;;;19.23;13.68;;;;;;;3.31;100.00;97748.25;1737195;81;21459;-60
2021/11/28 03:37:10;;;;;;;;;;;;;;;3.35;100.00;97746.08;1784383;79;21916;-60
2021/11/28 03:39:39;;;;;;;17.65;13.25;;;;;;;3.38;100.00;97743.91;1782885;79;20410;-60
2021/11/28 03:42:10;;;;;;;16.70;13.48;;;;;;;3.40;100.00;97738.25;1779029;79;21388;-59
2021/11/28 03:44:44;;;;;;;16.17;12.55;;;;;;;3.33;100.00;97739.13;1781874;79;21455;-60
2021/11/28 03:47:14;;;;;;;17.00;12.37;;;;;;;3.24;100.00;97727.37;1781575;79;20999;-60
2021/11/28 03:49:50;;;;;;;16.15;11.85;;;;;;;3.21;100.00;97732.58;1779094;80;21438;-59
2021/11/28 03:52:31;;;;;;;14.50;11.75;;;;;;;3.20;100.00;97730.41;1782375;79;20888;-60
2021/11/28 03:55:02;;;;;;;17.62;12.37;;;;;;;3.18;100.00;97730.84;1779486;79;20932;-60
2021/11/28 03:57:35;;;;;;;18.45;12.95;;;;;;;3.17;100.00;97721.29;1780296;80;21466;-60
2021/11/28 04:00:11;;;;;;;15.55;11.73;;;;;;;3.17;100.00;97723.89;1780991;80;20960;-60
2021/11/28 04:02:45;;;;;;;18.45;13.83;;;;;;;3.14;100.00;97729.10;1743414;80;22832;-60
2021/11/28 04:05:23;;;;;;;18.82;12.37;;;;;;;3.09;100.00;97726.50;1779531;78;20915;-59
2021/11/28 04:07:48;;;;;;;18.45;12.13;;;;;;;3.05;100.00;97722.59;1780299;79;21431;-60
2021/11/28 04:10:27;;;;;;;16.60;11.40;;;;;;;3.00;100.00;97721.28;1754190;80;21470;-60
2021/11/28 04:13:01;;;;;;;17.37;12.23;;;;;;;2.95;100.00;97721.71;1780156;79;21546;-60
2021/11/28 04:15:31;;;;;;;13.38;10.45;;;;;;;2.92;100.00;97717.80;1776647;79;22051;-60
2021/11/28 04:18:13;;;;;;;16.25;11.25;;;;;;;2.91;100.00;97721.70;1774401;79;20868;-59
2021/11/28 04:20:45;;;;;;;16.62;11.38;;;;;;;2.90;100.00;97724.75;1791014;79;21379;-59
2021/11/28 04:23:15;;;;;;;17.35;11.95;;;;;;;2.91;100.00;97719.10;1796238;78;21493;-60
2021/11/28 04:25:44;;;;;;;15.75;12.60;;;;;;;2.91;100.00;97706.08;1795981;78;20943;-59
2021/11/28 04:28:14;;;;;;;18.92;13.28;;;;;;;2.93;100.00;97705.22;1796428;78;21481;-60
2021/11/28 04:30:42;;;;;;;17.52;13.40;;;;;;;2.94;100.00;97704.78;1758493;80;20879;-60
2021/11/28 04:33:15;;;;;;;16.90;12.58;;;;;;;2.93;100.00;97703.05;1720888;82;21478;-59
2021/11/28 04:35:44;;;;;;;20.25;13.88;;;;;;;2.92;100.00;97700.88;1745452;80;20934;-61
2021/11/28 04:38:17;;;;;;;27.27;16.95;;;;;;;2.91;100.00;97707.38;1758487;80;21014;-59
2021/11/28 04:40:49;;;;;;;20.35;15.32;;;;;;;2.89;100.00;97703.91;1757109;80;21243;-60
2021/11/28 04:43:23;;;;;;;20.92;14.53;;;;;;;2.90;100.00;97704.34;1749574;80;21407;-60
2021/11/28 04:45:53;;;;;;;29.37;16.30;;;;;;;2.91;100.00;97699.13;1752679;80;20963;-60
2021/11/28 04:48:23;;;;;;;22.58;16.25;;;;;;;2.90;100.00;97693.49;1758621;80;20914;-60
2021/11/28 04:50:58;;;;;;;25.27;17.05;;;;;;;2.89;100.00;97696.97;1746863;80;21066;-61
2021/11/28 04:53:29;;;;;;;30.45;17.80;;;;;;;2.87;100.00;97700.00;1751749;80;21770;-60
2021/11/28 04:56:00;;;;;;;23.18;15.50;;;;;;;2.86;100.00;97701.30;1796366;78;20848;-61
2021/11/28 04:58:31;;;;;;;26.05;17.12;;;;;;;2.86;100.00;97704.77;1796143;78;21383;-61
2021/11/28 05:01:00;;;;;;;25.80;17.40;;;;;;;2.86;100.00;97715.19;1796570;80;20848;-60
2021/11/28 05:03:28;;;;;;;27.73;18.52;;;;;;;2.84;100.00;97705.20;1796616;78;21474;-61
2021/11/28 05:06:16;;;;;;;27.80;18.65;;;;;;;2.83;100.00;97709.52;1796857;78;21391;-60
2021/11/28 05:09:01;;;;;;;28.35;19.27;;;;;;;2.82;100.00;97715.59;1796732;78;20852;-59
2021/11/28 05:11:30;;;;;;;29.87;19.25;;;;;;;2.81;100.00;97703.87;1796606;78;20935;-61
2021/11/28 05:14:04;;;;;;;31.75;18.70;;;;;;;2.80;100.00;97695.62;1796834;78;21426;-60
2021/11/28 05:16:33;;;;;;;30.23;19.27;;;;;;;2.79;100.00;97697.36;1791882;78;21418;-59
2021/11/28 05:19:01;;;;;;;25.97;18.75;;;;;;;2.85;100.00;97697.83;1796451;78;21186;-60
2021/11/28 05:21:33;;;;;;;26.40;17.27;;;;;;;2.87;100.00;97704.34;1771676;79;20951;-61
2021/11/28 05:24:02;;;;;;;23.55;16.65;;;;;;;2.88;100.00;97721.27;1766595;80;20876;-60
2021/11/28 05:26:30;;;;;;;20.65;15.50;;;;;;;2.91;100.00;97730.39;1743947;79;20975;-61
2021/11/28 05:29:03;;;;;;;19.42;14.90;;;;;;;2.94;100.00;97729.52;1776115;79;21498;-60
2021/11/28 05:31:32;;;;;;;21.17;14.25;;;;;;;2.95;100.00;97720.41;1770978;80;21164;-61
2021/11/28 05:34:32;;;;;;;22.07;14.33;;;;;;;2.99;100.00;97717.38;1758859;79;20956;-61
2021/11/28 05:37:08;;;;;;;23.50;15.28;;;;;;;3.02;100.00;97727.80;1764197;79;21347;-60
2021/11/28 05:39:38;;;;;;;20.08;13.60;;;;;;;3.04;100.00;97724.75;1752008;79;21424;-61
2021/11/28 05:42:06;;;;;;;20.62;13.90;;;;;;;3.07;100.00;97724.33;1760307;79;20936;-62
2021/11/28 05:44:34;;;;;;;18.62;12.80;;;;;;;3.06;100.00;97717.38;1762973;79;21825;-62
2021/11/28 05:47:07;;;;;;;17.82;12.50;;;;;;;3.09;100.00;97717.81;1734079;80;20900;-60
2021/11/28 05:49:53;;;;;;;19.20;14.90;;;;;;;3.09;100.00;97724.33;1766404;79;20877;-61
2021/11/28 05:52:25;;;;;;;18.92;14.13;;;;;;;3.09;100.00;97732.14;1773857;79;21442;-61
2021/11/28 05:54:55;;;;;;;22.00;13.85;;;;;;;3.07;100.00;97737.35;1774309;80;20884;-61
2021/11/28 05:57:23;;;;;;;22.75;14.43;;;;;;;3.07;100.00;97733.45;1775559;80;21795;-60
2021/11/28 05:59:53;;;;;;;19.32;12.58;;;;;;;3.08;100.00;97740.83;1776039;79;21388;-60
2021/11/28 06:02:21;;;;;;;18.52;13.03;;;;;;;3.11;100.00;97750.81;1767263;80;20916;-60
2021/11/28 06:04:51;;;;;;;16.57;12.20;;;;;;;3.13;100.00;97742.56;1765572;80;21420;-60
2021/11/28 06:07:36;;;;;;;17.82;12.98;;;;;;;3.17;100.00;97739.53;1744080;81;20932;-60
2021/11/28 06:10:05;;;;;;;22.30;14.18;;;;;;;3.20;100.00;97736.05;1752987;81;21099;-61
2021/11/28 06:12:35;;;;;;;19.40;13.75;;;;;;;3.23;100.00;97734.31;1774583;79;20932;-60
2021/11/28 06:15:05;;;;;;;16.37;12.18;;;;;;;3.26;100.00;97728.23;1766433;80;20920;-61
2021/11/28 06:17:36;;;;;;;20.05;13.43;;;;;;;3.29;100.00;97726.94;1767468;80;21499;-62
2021/11/28 06:20:18;;;;;;;19.27;13.50;;;;;;;3.31;100.00;97728.70;1769645;80;20932;-61
2021/11/28 06:22:57;;;;;;;19.25;12.93;;;;;;;3.34;100.00;97733.05;1796202;78;21108;-61
2021/11/28 06:25:25;;;;;;;19.60;13.53;;;;;;;3.40;100.00;97730.44;1796855;80;20852;-60
2021/11/28 06:27:53;;;;;;;19.77;13.85;;;;;;;3.46;100.00;97738.25;1796541;80;20931;-60
2021/11/28 06:30:21;;;;;;;20.52;14.68;;;;;;;3.47;100.00;97736.08;1796884;79;20971;-60
2021/11/28 06:33:08;;;;;;;21.73;14.70;;;;;;;3.45;100.00;97731.30;1796566;78;20931;-60
2021/11/28 06:35:49;;;;;;;22.37;14.98;;;;;;;3.43;100.00;97746.07;1796921;78;21491;-61
2021/11/28 06:38:24;;;;;;;20.52;13.78;;;;;;;3.41;100.00;97738.69;1784613;79;20868;-61
2021/11/28 06:41:10;;;;;;;21.87;14.65;;;;;;;3.40;100.00;97743.03;1796864;79;21356;-61
2021/11/28 06:43:38;;;;;;;22.07;14.35;;;;;;;3.31;100.00;97743.03;1768560;78;21034;-61
2021/11/28 06:46:09;;;;;;;21.82;15.90;;;;;;;3.25;100.00;97747.34;1758949;80;21539;-60
2021/11/28 06:48:38;;;;;;;19.20;14.98;;;;;;;3.16;100.00;97749.08;1743290;80;21942;-61
2021/11/28 06:51:24;;;;;;;22.55;15.38;;;;;;;3.13;100.00;97756.89;1796742;80;20946;-60
2021/11/28 06:53:52;;;;;;;21.97;15.38;;;;;;;3.09;100.00;97750.38;1796560;78;20859;-61
2021/11/28 06:56:35;;;;;;;23.47;15.68;;;;;;;3.06;100.00;97745.16;1796968;78;20880;-60
2021/11/28 06:59:06;;;;;;;27.52;17.00;;;;;;;3.05;100.00;97758.63;1796450;78;21354;-61
2021/11/28 07:01:34;;;;;;;23.12;15.90;;;;;;;3.01;100.00;97758.19;1796653;78;21081;-61
2021/11/28 07:04:04;;;;;;;21.87;16.05;;;;;;;3.00;100.00;97765.56;1794799;78;20898;-61
2021/11/28 07:06:50;;;;;;;22.30;15.20;;;;;;;3.03;100.00;97769.91;1759024;80;20930;-61
2021/11/28 07:09:18;;;;;;;23.40;16.15;;;;;;;3.06;100.00;97768.61;1752754;82;21410;-61
2021/11/28 07:11:48;;;;;;;22.67;15.32;;;;;;;3.08;100.00;97769.05;1758925;80;20883;-63
2021/11/28 07:14:18;;;;;;;23.18;15.90;;;;;;;3.13;100.00;97771.66;1758688;80;21513;-60
2021/11/28 07:16:47;;;;;;;21.17;15.30;;;;;;;3.16;100.00;97760.80;1758983;81;21439;-60
2021/11/28 07:19:16;;;;;;;22.17;14.35;;;;;;;3.23;100.00;97761.67;1758811;80;21423;-61
2021/11/28 07:21:49;;;;;;;;;;;;;;;3.27;100.00;97762.11;1751812;80;21491;-61
2021/11/28 07:24:17;;;;;;;21.93;14.75;;;;;;;3.30;100.00;97758.64;1748920;80;20136;-61
2021/11/28 07:26:46;;;;;;;22.20;14.60;;;;;;;3.36;100.00;97766.05;1747575;82;21086;-61
2021/11/28 07:29:17;;;;;;;21.95;14.30;;;;;;;3.44;100.00;97758.23;1746795;80;21402;-60
2021/11/28 07:31:45;;;;;;;19.77;14.95;;;;;;;3.54;100.00;97765.62;1747118;80;20914;-60
2021/11/28 07:34:14;;;;;;;19.42;14.90;;;;;;;3.62;100.00;97773.00;1675352;83;20999;-61
2021/11/28 07:37:00;;;;;;;21.10;14.35;;;;;;;3.72;100.00;97776.03;1780234;78;20912;-61
2021/11/28 07:39:27;;;;;;;17.10;13.10;;;;;;;3.85;100.00;97766.05;1776602;80;21082;-60
2021/11/28 07:41:55;;;;;;;20.32;14.73;;;;;;;4.00;100.00;97770.36;1759447;80;20887;-61
2021/11/28 07:44:37;;;;;;;19.85;14.33;;;;;;;4.13;100.00;97768.15;1784608;79;20861;-63
2021/11/28 07:47:10;;;;;;;22.45;14.95;;;;;;;4.25;100.00;97765.50;1779815;79;20919;-61
2021/11/28 07:49:40;;;;;;;20.12;14.93;;;;;;;4.36;100.00;97766.80;1781800;79;20843;-60
2021/11/28 07:52:09;;;;;;;23.20;14.43;;;;;;;4.47;100.00;97774.16;1781163;79;21143;-61
2021/11/28 07:54:37;;;;;;;23.70;15.43;;;;;;;4.58;100.00;97784.11;1763399;80;21427;-61
2021/11/28 07:57:05;;;;;;;20.23;15.00;;;;;;;4.70;100.00;97784.05;1785139;80;21439;-61
2021/11/28 07:59:40;;;;;;;21.93;14.40;;;;;;;4.84;100.00;97780.09;1781704;80;20919;-60
2021/11/28 08:02:14;;;;;;;18.60;13.68;;;;;;;4.95;100.00;97769.58;1784544;78;20888;-61
2021/11/28 08:04:43;;;;;;;18.35;13.70;;;;;;;5.07;100.00;97774.73;1775525;79;21087;-60
2021/11/28 08:07:29;;;;;;;38.05;14.00;;;;;;;5.18;100.00;97766.81;1787219;78;20843;-62
2021/11/28 08:10:15;;;;;;;17.07;13.48;;;;;;;5.33;100.00;97768.05;1783273;80;21538;-61
2021/11/28 08:12:44;;;;;;;17.82;13.20;;;;;;;5.49;100.00;97760.51;1783314;80;21530;-62
2021/11/28 08:15:16;;;;;;;21.40;13.62;;;;;;;5.67;100.00;97767.33;1783404;80;21478;-61
2021/11/28 08:17:40;;;;;;;23.95;13.35;;;;;;;5.86;100.00;97760.20;1783183;80;21087;-61
2021/11/28 08:20:09;;;;;;;18.40;13.35;;;;;;;6.00;100.00;97753.98;1789066;78;20868;-60
2021/11/28 08:22:37;;;;;;;17.87;13.20;;;;;;;6.18;100.00;97765.17;1740370;80;20897;-61
2021/11/28 08:25:07;;;;;;;17.37;12.82;;;;;;;6.35;100.00;97765.84;1722607;81;20971;-61
2021/11/28 08:27:36;;;;;;;16.93;12.53;;;;;;;6.52;100.00;97759.97;1731936;81;20908;-60
2021/11/28 08:30:11;;;;;;;15.90;12.45;;;;;;;6.68;100.00;97756.73;1731600;81;21113;-59
2021/11/28 08:32:48;;;;;;;19.55;14.23;;;;;;;6.81;100.00;97759.62;1727357;83;21135;-60
2021/11/28 08:35:35;;;;;;;17.48;13.93;;;;;;;6.92;100.00;97751.16;1770042;80;20880;-60
2021/11/28 08:38:04;;;;;;;17.80;13.55;;;;;;;7.04;100.00;97746.63;1793490;78;20872;-60
2021/11/28 08:40:33;;;;;;;20.25;13.60;;;;;;;7.17;100.00;97740.34;1774267;79;21375;-60
2021/11/28 08:43:01;;;;;;;18.67;14.58;;;;;;;7.25;100.00;97737.16;1774497;81;21024;-61
2021/11/28 08:45:29;;;;;;;22.40;15.30;;;;;;;7.35;100.00;97742.69;1774232;79;20900;-59
2021/11/28 08:47:57;;;;;;;19.70;14.33;;;;;;;7.45;100.00;97740.78;1774329;79;20928;-62
2021/11/28 08:50:25;;;;;;;18.23;14.50;;;;;;;7.48;100.00;97732.86;1774160;79;20841;-61
2021/11/28 08:52:53;;;;;;;20.77;15.10;;;;;;;7.50;100.00;97713.57;1774408;81;21368;-60
2021/11/28 08:55:21;;;;;;;19.57;14.78;;;;;;;7.60;100.00;97711.69;1774665;81;21043;-60
2021/11/28 08:57:49;;;;;;;20.05;15.50;;;;;;;7.66;100.00;97703.70;1756258;79;21015;-62
2021/11/28 09:00:19;;;;;;;22.70;16.05;;;;;;;7.75;100.00;97700.05;1758632;79;21459;-61
2021/11/28 09:02:50;;;;;;;17.73;13.63;;;;;;;7.84;100.00;97701.20;1751286;81;21585;-60
2021/11/28 09:05:19;;;;;;;18.50;13.85;;;;;;;7.94;100.00;97695.33;1752895;79;21493;-61
2021/11/28 09:07:48;;;;;;;18.57;14.20;;;;;;;8.01;100.00;97696.48;1751613;79;21081;-60
2021/11/28 09:10:16;;;;;;;18.15;14.10;;;;;;;8.06;100.00;97701.69;1743979;82;21436;-61
2021/11/28 09:12:45;;;;;;;15.90;13.60;;;;;;;8.09;100.00;97692.44;1775722;79;20886;-61
2021/11/28 09:15:12;;;;;;;16.40;13.13;;;;;;;8.16;100.00;97689.66;1781800;78;20870;-61
2021/11/28 09:17:49;;;;;;;17.15;12.82;;;;;;;8.25;100.00;97682.48;1764261;79;21330;-60
2021/11/28 09:20:13;;;;;;;15.68;12.47;;;;;;;8.33;100.00;97684.09;1780745;79;21114;-60
2021/11/28 09:25:10;;;;;;;35.43;13.30;;;;;;;8.56;100.00;97674.89;1782325;80;20866;-60
2021/11/28 09:27:48;;;;;;;13.20;11.53;;;;;;;8.63;100.00;97664.20;1781367;78;20947;-60
2021/11/28 09:30:17;;;;;;;14.73;12.10;;;;;;;8.72;100.00;97658.75;1780762;80;20893;-61
2021/11/28 09:32:45;;;;;;;14.35;11.57;;;;;;;8.84;100.00;97654.52;1781485;80;21106;-61
2021/11/28 09:35:13;;;;;;;14.70;11.63;;;;;;;8.98;100.00;97650.70;1774568;79;20908;-60
2021/11/28 09:37:41;;;;;;;15.63;12.03;;;;;;;9.12;100.00;97648.19;1775543;79;20842;-62
2021/11/28 09:40:09;;;;;;;15.68;12.13;;;;;;;9.22;100.00;97647.95;1782994;79;20894;-62
2021/11/28 09:42:40;;;;;;;19.02;13.55;;;;;;;9.27;100.00;97641.68;1782821;79;21381;-61
2021/11/28 09:45:09;;;;;;;23.40;12.50;;;;;;;9.25;100.00;97647.43;1782529;80;21099;-61
2021/11/28 09:47:38;;;;;;;17.40;12.13;;;;;;;9.13;100.00;97640.70;1782624;79;20886;-61
2021/11/28 09:50:08;;;;;;;16.30;13.00;;;;;;;9.12;100.00;97634.16;1784981;79;21392;-61
2021/11/28 09:52:37;;;;;;;15.50;13.20;;;;;;;9.12;100.00;97639.42;1791461;78;21437;-61
2021/11/28 09:55:10;;;;;;;17.70;14.23;;;;;;;9.08;100.00;97628.57;1788390;78;21287;-60
2021/11/28 09:57:39;;;;;;;17.50;14.15;;;;;;;9.08;100.00;97621.99;1782865;80;21112;-60
2021/11/28 10:00:09;;;;;;;17.20;13.13;;;;;;;9.13;100.00;97618.80;1782915;79;20876;-60
2021/11/28 10:02:40;;;;;;;20.72;12.45;;;;;;;9.18;100.00;97620.86;1782316;79;20865;-61
2021/11/28 10:05:13;;;;;;;16.62;12.93;;;;;;;9.23;100.00;97622.92;1784581;78;20936;-60
2021/11/28 10:07:46;;;;;;;16.80;12.93;;;;;;;9.26;100.00;97629.42;1780332;80;21391;-60
2021/11/28 10:10:17;;;;;;;14.63;12.80;;;;;;;9.31;100.00;97628.86;1782726;78;21481;-60
2021/11/28 10:12:50;;;;;;;16.40;13.30;;;;;;;9.44;100.00;97626.77;1781957;79;20937;-58
2021/11/28 10:15:24;;;;;;;13.38;11.53;;;;;;;9.53;100.00;97626.56;1783744;78;20890;-59
2021/11/28 10:17:53;;;;;;;13.55;11.70;;;;;;;9.61;100.00;97627.68;1780941;80;20889;-59
2021/11/28 10:20:25;;;;;;;14.30;11.40;;;;;;;9.72;100.00;97629.12;1779763;79;20872;-60
2021/11/28 10:22:54;;;;;;;13.70;12.10;;;;;;;9.81;100.00;97626.69;1779840;79;21427;-60
2021/11/28 10:25:27;;;;;;;14.60;11.65;;;;;;;9.89;100.00;97623.84;1793755;78;20863;-60
2021/11/28 10:27:59;;;;;;;12.85;11.45;;;;;;;9.98;100.00;97615.71;1770657;78;20882;-61
2021/11/28 10:30:34;;;;;;;14.47;11.18;;;;;;;10.12;100.00;97619.27;1794459;79;20942;-61
2021/11/28 10:33:14;;;;;;;11.40;10.20;;;;;;;10.25;100.00;97610.13;1785087;78;20833;-60
2021/11/28 10:36:07;;;;;;;11.28;9.50;;;;;;;10.39;100.00;97600.91;1774472;79;21049;-60
2021/11/28 10:38:43;;;;;;;;;;;;;;;10.53;100.00;97597.88;1770924;79;20896;-59
2021/11/28 10:41:25;;;;;;;11.43;10.15;;;;;;;10.61;100.00;97595.01;1767154;79;20085;-60
2021/11/28 10:43:58;;;;;;;13.32;10.55;;;;;;;10.62;100.00;97580.45;1767425;80;20884;-60
2021/11/28 10:46:30;;;;;;;;;;;;;;;10.64;100.00;97575.13;1777059;79;20869;-60
2021/11/28 10:49:13;;;;;;;12.30;9.70;;;;;;;10.67;100.00;97568.45;1774401;79;21095;-60
2021/11/28 10:51:50;;;;;;;14.68;9.63;;;;;;;10.68;100.00;97564.44;1765389;79;21380;-61
2021/11/28 10:54:31;;;;;;;12.88;9.50;;;;;;;10.72;100.00;97547.61;1764351;79;21438;-59
2021/11/28 10:57:10;;;;;;;11.22;9.30;;;;;;;10.73;100.00;97541.42;1764775;79;20939;-59
2021/11/28 10:59:40;;;;;;;13.80;8.73;;;;;;;10.72;100.00;97544.97;1766901;79;21274;-61
2021/11/28 11:02:33;;;;;;;10.65;9.05;;;;;;;10.73;100.00;97541.88;1746472;81;21087;-60
2021/11/28 11:05:02;;;;;;;;;;;;;;;10.70;100.00;97544.16;1770156;79;21561;-59
2021/11/28 11:07:46;;;;;;;10.70;9.05;;;;;;;10.64;100.00;97536.91;1764500;79;20441;-59
2021/11/28 11:10:17;;;;;;;11.85;9.48;;;;;;;10.58;100.00;97527.87;1769063;79;21450;-59
2021/11/28 11:12:45;;;;;;;11.43;9.48;;;;;;;10.50;100.00;97531.20;1770890;79;20927;-59
2021/11/28 11:15:16;;;;;;;10.23;9.00;;;;;;;10.39;100.00;97533.69;1770175;79;21096;-59
2021/11/28 11:17:57;;;;;;;11.78;9.60;;;;;;;10.30;100.00;97527.84;1767932;80;21408;-59
2021/11/28 11:20:27;;;;;;;13.00;9.65;;;;;;;10.20;100.00;97523.31;1767967;79;20927;-60
2021/11/28 11:22:56;;;;;;;12.20;9.25;;;;;;;10.14;100.00;97526.55;1780289;78;20888;-60
2021/11/28 11:25:37;;;;;;;10.53;9.35;;;;;;;10.11;100.00;97522.24;1790649;78;21465;-60
2021/11/28 11:28:11;;;;;;;12.68;9.48;;;;;;;10.11;100.00;97518.29;1789032;78;21085;-60
2021/11/28 11:30:40;;;;;;;11.95;10.25;;;;;;;10.11;100.00;97518.29;1787487;78;21363;-60
2021/11/28 11:33:08;;;;;;;15.28;10.78;;;;;;;10.09;100.00;97528.02;1790699;78;20945;-60
2021/11/28 11:35:40;;;;;;;12.53;10.68;;;;;;;10.03;100.00;97533.02;1786668;78;20990;-60
2021/11/28 11:38:14;;;;;;;14.90;9.80;;;;;;;9.99;100.00;97528.74;1790941;78;21517;-60
2021/11/28 11:40:44;;;;;;;19.75;9.83;;;;;;;9.96;100.00;97531.47;1785974;78;20865;-60
2021/11/28 11:43:15;;;;;;;21.17;11.03;;;;;;;9.96;100.00;97527.52;1790816;78;20847;-60
2021/11/28 11:45:48;;;;;;;13.38;10.82;;;;;;;9.95;100.00;97524.93;1790622;78;20983;-59
2021/11/28 11:48:13;;;;;;;11.95;10.53;;;;;;;9.94;100.00;97521.88;1790176;78;20915;-59
2021/11/28 11:50:41;;;;;;;13.90;11.18;;;;;;;9.93;100.00;97518.39;1790553;78;21426;-59